sensor_id;sensor_type;location;lat;lon;timestamp;P1;durP1;ratioP1;P2;durP2;ratioP2
47239;SDS011;32978;53.586;10.052;2023-04-03T00:03:26;9.10;;;4.88;;
47239;SDS011;32978;53.586;10.052;2023-04-03T00:08:22;10.55;;;5.07;;
47239;SDS011;32978;53.586;10.052;2023-04-03T00:13:19;7.10;;;4.93;;
47239;SDS011;32978;53.586;10.052;2023-04-03T00:18:15;9.13;;;4.95;;
47239;SDS011;32978;53.586;10.052;2023-04-03T00:23:11;15.00;;;6.20;;
47239;SDS011;32978;53.586;10.052;2023-04-03T00:28:08;9.93;;;5.22;;
47239;SDS011;32978;53.586;10.052;2023-04-03T00:33:04;7.40;;;5.45;;
47239;SDS011;32978;53.586;10.052;2023-04-03T00:38:01;10.05;;;5.35;;
47239;SDS011;32978;53.586;10.052;2023-04-03T00:42:58;7.30;;;5.10;;
47239;SDS011;32978;53.586;10.052;2023-04-03T00:47:55;11.00;;;6.07;;
47239;SDS011;32978;53.586;10.052;2023-04-03T00:52:53;11.65;;;6.60;;
47239;SDS011;32978;53.586;10.052;2023-04-03T00:57:50;7.95;;;5.15;;
47239;SDS011;32978;53.586;10.052;2023-04-03T01:08:18;10.45;;;6.20;;
47239;SDS011;32978;53.586;10.052;2023-04-03T01:13:19;11.30;;;5.53;;
47239;SDS011;32978;53.586;10.052;2023-04-03T01:18:18;7.78;;;5.55;;
47239;SDS011;32978;53.586;10.052;2023-04-03T01:28:29;13.98;;;6.00;;
47239;SDS011;32978;53.586;10.052;2023-04-03T01:33:27;9.13;;;5.20;;
47239;SDS011;32978;53.586;10.052;2023-04-03T01:38:24;8.15;;;5.80;;
47239;SDS011;32978;53.586;10.052;2023-04-03T01:43:20;17.08;;;6.40;;
47239;SDS011;32978;53.586;10.052;2023-04-03T01:48:16;9.23;;;5.53;;
47239;SDS011;32978;53.586;10.052;2023-04-03T01:53:13;8.10;;;5.38;;
47239;SDS011;32978;53.586;10.052;2023-04-03T01:58:09;10.40;;;6.50;;
47239;SDS011;32978;53.586;10.052;2023-04-03T02:03:06;13.32;;;5.68;;
47239;SDS011;32978;53.586;10.052;2023-04-03T02:08:03;8.55;;;5.43;;
47239;SDS011;32978;53.586;10.052;2023-04-03T02:12:59;13.43;;;5.75;;
47239;SDS011;32978;53.586;10.052;2023-04-03T02:17:56;10.68;;;6.22;;
47239;SDS011;32978;53.586;10.052;2023-04-03T02:22:53;10.98;;;5.53;;
47239;SDS011;32978;53.586;10.052;2023-04-03T02:27:49;6.80;;;5.45;;
47239;SDS011;32978;53.586;10.052;2023-04-03T02:32:46;8.35;;;5.60;;
47239;SDS011;32978;53.586;10.052;2023-04-03T02:37:43;8.52;;;6.03;;
47239;SDS011;32978;53.586;10.052;2023-04-03T02:42:39;9.57;;;5.80;;
47239;SDS011;32978;53.586;10.052;2023-04-03T02:47:36;13.93;;;6.25;;
47239;SDS011;32978;53.586;10.052;2023-04-03T02:52:32;9.38;;;5.78;;
47239;SDS011;32978;53.586;10.052;2023-04-03T02:57:29;9.02;;;5.30;;
47239;SDS011;32978;53.586;10.052;2023-04-03T03:02:26;6.25;;;5.35;;
47239;SDS011;32978;53.586;10.052;2023-04-03T03:07:22;7.75;;;5.75;;
47239;SDS011;32978;53.586;10.052;2023-04-03T03:12:19;9.15;;;5.80;;
47239;SDS011;32978;53.586;10.052;2023-04-03T03:17:17;9.38;;;6.38;;
47239;SDS011;32978;53.586;10.052;2023-04-03T03:22:14;8.68;;;5.65;;
47239;SDS011;32978;53.586;10.052;2023-04-03T03:27:11;11.60;;;6.45;;
47239;SDS011;32978;53.586;10.052;2023-04-03T03:32:08;11.27;;;5.88;;
47239;SDS011;32978;53.586;10.052;2023-04-03T03:37:04;13.10;;;6.35;;
47239;SDS011;32978;53.586;10.052;2023-04-03T03:42:01;7.88;;;5.75;;
47239;SDS011;32978;53.586;10.052;2023-04-03T03:46:57;6.32;;;5.72;;
47239;SDS011;32978;53.586;10.052;2023-04-03T03:51:54;11.68;;;6.25;;
47239;SDS011;32978;53.586;10.052;2023-04-03T03:56:51;10.10;;;6.40;;
47239;SDS011;32978;53.586;10.052;2023-04-03T04:01:49;9.90;;;5.72;;
47239;SDS011;32978;53.586;10.052;2023-04-03T04:06:45;11.27;;;6.85;;
47239;SDS011;32978;53.586;10.052;2023-04-03T04:11:42;9.02;;;6.25;;
47239;SDS011;32978;53.586;10.052;2023-04-03T04:16:38;8.60;;;6.32;;
47239;SDS011;32978;53.586;10.052;2023-04-03T04:21:35;13.55;;;6.68;;
47239;SDS011;32978;53.586;10.052;2023-04-03T04:26:31;11.07;;;6.72;;
47239;SDS011;32978;53.586;10.052;2023-04-03T04:31:28;12.20;;;7.22;;
47239;SDS011;32978;53.586;10.052;2023-04-03T04:36:24;10.70;;;7.40;;
47239;SDS011;32978;53.586;10.052;2023-04-03T04:41:21;11.32;;;7.82;;
47239;SDS011;32978;53.586;10.052;2023-04-03T04:46:19;10.85;;;8.38;;
47239;SDS011;32978;53.586;10.052;2023-04-03T04:51:15;9.18;;;8.32;;
47239;SDS011;32978;53.586;10.052;2023-04-03T04:56:12;9.00;;;8.10;;
47239;SDS011;32978;53.586;10.052;2023-04-03T05:01:09;8.88;;;8.10;;
47239;SDS011;32978;53.586;10.052;2023-04-03T05:06:06;11.50;;;8.68;;
47239;SDS011;32978;53.586;10.052;2023-04-03T05:11:03;12.57;;;8.40;;
47239;SDS011;32978;53.586;10.052;2023-04-03T05:15:59;9.40;;;8.50;;
47239;SDS011;32978;53.586;10.052;2023-04-03T05:20:56;17.15;;;9.93;;
47239;SDS011;32978;53.586;10.052;2023-04-03T05:25:53;11.23;;;8.73;;
47239;SDS011;32978;53.586;10.052;2023-04-03T05:30:54;10.27;;;9.13;;
47239;SDS011;32978;53.586;10.052;2023-04-03T05:35:52;9.83;;;8.30;;
47239;SDS011;32978;53.586;10.052;2023-04-03T05:40:49;13.50;;;8.93;;
47239;SDS011;32978;53.586;10.052;2023-04-03T05:45:46;10.30;;;8.43;;
47239;SDS011;32978;53.586;10.052;2023-04-03T05:50:43;11.70;;;8.73;;
47239;SDS011;32978;53.586;10.052;2023-04-03T05:55:40;10.93;;;9.38;;
47239;SDS011;32978;53.586;10.052;2023-04-03T06:00:36;11.95;;;8.88;;
47239;SDS011;32978;53.586;10.052;2023-04-03T06:05:33;12.85;;;8.75;;
47239;SDS011;32978;53.586;10.052;2023-04-03T06:10:29;12.27;;;8.90;;
47239;SDS011;32978;53.586;10.052;2023-04-03T06:15:26;13.55;;;9.20;;
47239;SDS011;32978;53.586;10.052;2023-04-03T06:20:23;11.63;;;9.60;;
47239;SDS011;32978;53.586;10.052;2023-04-03T06:25:20;12.95;;;8.50;;
47239;SDS011;32978;53.586;10.052;2023-04-03T06:30:17;10.15;;;9.05;;
47239;SDS011;32978;53.586;10.052;2023-04-03T06:35:13;12.20;;;9.00;;
47239;SDS011;32978;53.586;10.052;2023-04-03T06:40:18;9.75;;;8.52;;
47239;SDS011;32978;53.586;10.052;2023-04-03T06:45:18;12.98;;;8.57;;
47239;SDS011;32978;53.586;10.052;2023-04-03T06:50:15;16.77;;;8.15;;
47239;SDS011;32978;53.586;10.052;2023-04-03T06:55:12;11.55;;;8.13;;
47239;SDS011;32978;53.586;10.052;2023-04-03T07:00:08;15.48;;;8.07;;
47239;SDS011;32978;53.586;10.052;2023-04-03T07:05:07;12.77;;;6.75;;
47239;SDS011;32978;53.586;10.052;2023-04-03T07:10:05;8.00;;;6.35;;
47239;SDS011;32978;53.586;10.052;2023-04-03T07:15:02;7.15;;;5.60;;
47239;SDS011;32978;53.586;10.052;2023-04-03T07:20:00;7.88;;;6.40;;
47239;SDS011;32978;53.586;10.052;2023-04-03T07:24:56;9.85;;;6.50;;
47239;SDS011;32978;53.586;10.052;2023-04-03T07:29:53;6.65;;;5.95;;
47239;SDS011;32978;53.586;10.052;2023-04-03T07:34:51;8.93;;;5.15;;
47239;SDS011;32978;53.586;10.052;2023-04-03T07:39:48;9.48;;;6.07;;
47239;SDS011;32978;53.586;10.052;2023-04-03T07:44:44;7.85;;;5.53;;
47239;SDS011;32978;53.586;10.052;2023-04-03T07:49:42;7.40;;;5.70;;
47239;SDS011;32978;53.586;10.052;2023-04-03T07:54:39;12.52;;;6.50;;
47239;SDS011;32978;53.586;10.052;2023-04-03T07:59:36;7.40;;;5.70;;
47239;SDS011;32978;53.586;10.052;2023-04-03T08:04:32;5.28;;;4.80;;
47239;SDS011;32978;53.586;10.052;2023-04-03T08:09:29;6.25;;;5.10;;
47239;SDS011;32978;53.586;10.052;2023-04-03T08:14:25;13.65;;;6.38;;
47239;SDS011;32978;53.586;10.052;2023-04-03T08:19:22;6.00;;;5.40;;
47239;SDS011;32978;53.586;10.052;2023-04-03T08:24:22;7.47;;;5.63;;
47239;SDS011;32978;53.586;10.052;2023-04-03T08:29:18;7.75;;;5.38;;
47239;SDS011;32978;53.586;10.052;2023-04-03T08:34:14;6.75;;;5.60;;
47239;SDS011;32978;53.586;10.052;2023-04-03T08:39:11;7.28;;;5.50;;
47239;SDS011;32978;53.586;10.052;2023-04-03T08:44:14;7.10;;;5.40;;
47239;SDS011;32978;53.586;10.052;2023-04-03T08:49:19;7.13;;;5.30;;
47239;SDS011;32978;53.586;10.052;2023-04-03T08:54:23;8.40;;;6.57;;
47239;SDS011;32978;53.586;10.052;2023-04-03T08:59:26;7.13;;;5.20;;
47239;SDS011;32978;53.586;10.052;2023-04-03T09:04:26;5.28;;;4.78;;
47239;SDS011;32978;53.586;10.052;2023-04-03T09:09:40;5.45;;;4.95;;
47239;SDS011;32978;53.586;10.052;2023-04-03T09:25:17;6.32;;;5.18;;
47239;SDS011;32978;53.586;10.052;2023-04-03T09:30:20;6.20;;;4.35;;
47239;SDS011;32978;53.586;10.052;2023-04-03T09:35:26;6.00;;;5.38;;
47239;SDS011;32978;53.586;10.052;2023-04-03T09:40:40;6.10;;;5.10;;
47239;SDS011;32978;53.586;10.052;2023-04-03T09:45:41;6.00;;;5.38;;
47239;SDS011;32978;53.586;10.052;2023-04-03T09:50:52;7.72;;;4.85;;
47239;SDS011;32978;53.586;10.052;2023-04-03T09:55:55;5.20;;;4.70;;
47239;SDS011;32978;53.586;10.052;2023-04-03T10:00:56;5.35;;;4.85;;
47239;SDS011;32978;53.586;10.052;2023-04-03T10:05:54;5.47;;;4.72;;
47239;SDS011;32978;53.586;10.052;2023-04-03T10:11:34;6.95;;;5.20;;
47239;SDS011;32978;53.586;10.052;2023-04-03T10:16:14;5.38;;;4.90;;
47239;SDS011;32978;53.586;10.052;2023-04-03T10:21:23;7.15;;;5.38;;
47239;SDS011;32978;53.586;10.052;2023-04-03T10:26:57;6.05;;;5.00;;
47239;SDS011;32978;53.586;10.052;2023-04-03T10:32:17;5.60;;;5.10;;
47239;SDS011;32978;53.586;10.052;2023-04-03T10:37:34;6.13;;;5.53;;
47239;SDS011;32978;53.586;10.052;2023-04-03T10:48:26;6.60;;;6.03;;
47239;SDS011;32978;53.586;10.052;2023-04-03T10:53:37;5.82;;;5.32;;
47239;SDS011;32978;53.586;10.052;2023-04-03T10:58:45;5.97;;;5.47;;
47239;SDS011;32978;53.586;10.052;2023-04-03T11:03:57;5.90;;;5.40;;
47239;SDS011;32978;53.586;10.052;2023-04-03T11:09:15;5.88;;;5.40;;
47239;SDS011;32978;53.586;10.052;2023-04-03T11:14:31;6.63;;;5.97;;
47239;SDS011;32978;53.586;10.052;2023-04-03T11:19:34;6.20;;;5.47;;
47239;SDS011;32978;53.586;10.052;2023-04-03T11:24:46;6.70;;;5.88;;
47239;SDS011;32978;53.586;10.052;2023-04-03T11:30:02;6.68;;;6.18;;
47239;SDS011;32978;53.586;10.052;2023-04-03T11:35:04;6.30;;;5.63;;
47239;SDS011;32978;53.586;10.052;2023-04-03T11:55:44;7.07;;;5.63;;
47239;SDS011;32978;53.586;10.052;2023-04-03T12:05:47;7.00;;;6.30;;
47239;SDS011;32978;53.586;10.052;2023-04-03T12:10:51;6.00;;;5.50;;
47239;SDS011;32978;53.586;10.052;2023-04-03T12:16:06;6.13;;;5.53;;
47239;SDS011;32978;53.586;10.052;2023-04-03T12:21:15;6.47;;;5.85;;
47239;SDS011;32978;53.586;10.052;2023-04-03T12:31:13;7.72;;;6.30;;
47239;SDS011;32978;53.586;10.052;2023-04-03T12:36:11;6.68;;;6.07;;
47239;SDS011;32978;53.586;10.052;2023-04-03T12:41:18;6.35;;;5.85;;
47239;SDS011;32978;53.586;10.052;2023-04-03T12:46:24;7.35;;;5.88;;
47239;SDS011;32978;53.586;10.052;2023-04-03T12:51:36;6.88;;;6.05;;
47239;SDS011;32978;53.586;10.052;2023-04-03T12:56:36;6.13;;;5.63;;
47239;SDS011;32978;53.586;10.052;2023-04-03T13:01:32;6.72;;;5.75;;
47239;SDS011;32978;53.586;10.052;2023-04-03T13:06:34;6.78;;;6.18;;
47239;SDS011;32978;53.586;10.052;2023-04-03T13:11:36;6.10;;;5.50;;
47239;SDS011;32978;53.586;10.052;2023-04-03T13:16:36;6.68;;;5.65;;
47239;SDS011;32978;53.586;10.052;2023-04-03T13:21:37;5.63;;;5.10;;
47239;SDS011;32978;53.586;10.052;2023-04-03T13:26:33;6.13;;;5.53;;
47239;SDS011;32978;53.586;10.052;2023-04-03T13:31:32;6.45;;;5.85;;
47239;SDS011;32978;53.586;10.052;2023-04-03T13:36:31;5.95;;;5.35;;
47239;SDS011;32978;53.586;10.052;2023-04-03T13:41:37;6.18;;;5.57;;
47239;SDS011;32978;53.586;10.052;2023-04-03T13:46:35;6.32;;;5.72;;
47239;SDS011;32978;53.586;10.052;2023-04-03T13:51:31;6.68;;;5.65;;
47239;SDS011;32978;53.586;10.052;2023-04-03T13:56:38;8.13;;;5.90;;
47239;SDS011;32978;53.586;10.052;2023-04-03T14:01:42;5.57;;;5.18;;
47239;SDS011;32978;53.586;10.052;2023-04-03T14:06:51;5.93;;;5.43;;
47239;SDS011;32978;53.586;10.052;2023-04-03T14:11:48;6.10;;;5.20;;
47239;SDS011;32978;53.586;10.052;2023-04-03T14:16:50;6.57;;;5.97;;
47239;SDS011;32978;53.586;10.052;2023-04-03T14:21:49;6.70;;;6.10;;
47239;SDS011;32978;53.586;10.052;2023-04-03T14:26:47;6.63;;;6.03;;
47239;SDS011;32978;53.586;10.052;2023-04-03T14:31:46;6.82;;;6.07;;
47239;SDS011;32978;53.586;10.052;2023-04-03T14:36:43;5.78;;;5.28;;
47239;SDS011;32978;53.586;10.052;2023-04-03T14:41:41;6.68;;;5.97;;
47239;SDS011;32978;53.586;10.052;2023-04-03T14:46:38;6.25;;;5.72;;
47239;SDS011;32978;53.586;10.052;2023-04-03T14:51:52;6.35;;;5.75;;
47239;SDS011;32978;53.586;10.052;2023-04-03T14:56:48;6.93;;;6.32;;
47239;SDS011;32978;53.586;10.052;2023-04-03T15:01:45;7.43;;;6.82;;
47239;SDS011;32978;53.586;10.052;2023-04-03T15:06:42;6.05;;;5.45;;
47239;SDS011;32978;53.586;10.052;2023-04-03T15:11:39;6.43;;;5.65;;
47239;SDS011;32978;53.586;10.052;2023-04-03T15:16:35;6.38;;;5.32;;
47239;SDS011;32978;53.586;10.052;2023-04-03T15:21:32;7.65;;;6.15;;
47239;SDS011;32978;53.586;10.052;2023-04-03T15:26:28;6.60;;;5.88;;
47239;SDS011;32978;53.586;10.052;2023-04-03T15:31:25;7.80;;;5.60;;
47239;SDS011;32978;53.586;10.052;2023-04-03T15:36:22;6.07;;;5.07;;
47239;SDS011;32978;53.586;10.052;2023-04-03T15:46:21;6.15;;;5.40;;
47239;SDS011;32978;53.586;10.052;2023-04-03T15:51:17;6.05;;;5.40;;
47239;SDS011;32978;53.586;10.052;2023-04-03T15:56:14;5.85;;;5.35;;
47239;SDS011;32978;53.586;10.052;2023-04-03T16:01:11;6.55;;;5.13;;
47239;SDS011;32978;53.586;10.052;2023-04-03T16:06:07;6.03;;;5.25;;
47239;SDS011;32978;53.586;10.052;2023-04-03T16:11:04;5.90;;;5.30;;
47239;SDS011;32978;53.586;10.052;2023-04-03T16:16:00;7.15;;;5.97;;
47239;SDS011;32978;53.586;10.052;2023-04-03T16:20:58;5.85;;;5.25;;
47239;SDS011;32978;53.586;10.052;2023-04-03T16:25:55;7.22;;;5.13;;
47239;SDS011;32978;53.586;10.052;2023-04-03T16:30:52;5.70;;;5.20;;
47239;SDS011;32978;53.586;10.052;2023-04-03T16:35:49;6.57;;;5.90;;
47239;SDS011;32978;53.586;10.052;2023-04-03T16:40:46;7.93;;;6.15;;
47239;SDS011;32978;53.586;10.052;2023-04-03T16:45:44;7.13;;;5.15;;
47239;SDS011;32978;53.586;10.052;2023-04-03T16:50:41;9.52;;;5.40;;
47239;SDS011;32978;53.586;10.052;2023-04-03T16:55:37;7.75;;;4.80;;
47239;SDS011;32978;53.586;10.052;2023-04-03T17:00:35;5.50;;;4.90;;
47239;SDS011;32978;53.586;10.052;2023-04-03T17:05:32;8.20;;;5.40;;
47239;SDS011;32978;53.586;10.052;2023-04-03T17:10:29;7.38;;;4.90;;
47239;SDS011;32978;53.586;10.052;2023-04-03T17:15:26;4.90;;;4.35;;
47239;SDS011;32978;53.586;10.052;2023-04-03T17:20:23;5.53;;;4.75;;
47239;SDS011;32978;53.586;10.052;2023-04-03T17:25:19;5.93;;;4.60;;
47239;SDS011;32978;53.586;10.052;2023-04-03T17:30:16;6.60;;;4.80;;
47239;SDS011;32978;53.586;10.052;2023-04-03T17:35:13;5.32;;;4.82;;
47239;SDS011;32978;53.586;10.052;2023-04-03T17:40:09;7.07;;;5.10;;
47239;SDS011;32978;53.586;10.052;2023-04-03T17:45:09;8.10;;;4.90;;
47239;SDS011;32978;53.586;10.052;2023-04-03T17:50:06;6.57;;;5.28;;
47239;SDS011;32978;53.586;10.052;2023-04-03T17:55:03;8.52;;;5.03;;
47239;SDS011;32978;53.586;10.052;2023-04-03T18:00:00;7.32;;;4.60;;
47239;SDS011;32978;53.586;10.052;2023-04-03T18:04:57;7.40;;;4.40;;
47239;SDS011;32978;53.586;10.052;2023-04-03T18:09:53;6.25;;;4.28;;
47239;SDS011;32978;53.586;10.052;2023-04-03T18:14:52;5.45;;;4.50;;
47239;SDS011;32978;53.586;10.052;2023-04-03T18:19:49;6.15;;;4.57;;
47239;SDS011;32978;53.586;10.052;2023-04-03T18:24:47;9.43;;;5.57;;
47239;SDS011;32978;53.586;10.052;2023-04-03T18:29:49;6.22;;;4.43;;
47239;SDS011;32978;53.586;10.052;2023-04-03T18:34:49;5.72;;;4.75;;
47239;SDS011;32978;53.586;10.052;2023-04-03T18:39:46;7.22;;;5.28;;
47239;SDS011;32978;53.586;10.052;2023-04-03T18:44:44;5.60;;;5.05;;
47239;SDS011;32978;53.586;10.052;2023-04-03T18:49:43;6.57;;;5.05;;
47239;SDS011;32978;53.586;10.052;2023-04-03T18:54:39;8.52;;;5.70;;
47239;SDS011;32978;53.586;10.052;2023-04-03T18:59:37;9.20;;;5.35;;
47239;SDS011;32978;53.586;10.052;2023-04-03T19:04:34;6.53;;;4.70;;
47239;SDS011;32978;53.586;10.052;2023-04-03T19:09:31;5.40;;;4.90;;
47239;SDS011;32978;53.586;10.052;2023-04-03T19:14:28;8.15;;;5.35;;
47239;SDS011;32978;53.586;10.052;2023-04-03T19:19:25;9.60;;;5.40;;
47239;SDS011;32978;53.586;10.052;2023-04-03T19:24:21;8.73;;;4.95;;
47239;SDS011;32978;53.586;10.052;2023-04-03T19:29:17;7.03;;;5.30;;
47239;SDS011;32978;53.586;10.052;2023-04-03T19:34:14;6.47;;;4.75;;
47239;SDS011;32978;53.586;10.052;2023-04-03T19:39:13;6.28;;;5.43;;
47239;SDS011;32978;53.586;10.052;2023-04-03T19:44:11;8.32;;;5.38;;
47239;SDS011;32978;53.586;10.052;2023-04-03T19:49:07;8.15;;;5.20;;
47239;SDS011;32978;53.586;10.052;2023-04-03T19:54:05;8.23;;;5.05;;
47239;SDS011;32978;53.586;10.052;2023-04-03T19:59:02;8.27;;;4.97;;
47239;SDS011;32978;53.586;10.052;2023-04-03T20:03:59;9.57;;;5.03;;
47239;SDS011;32978;53.586;10.052;2023-04-03T20:08:55;7.43;;;4.97;;
47239;SDS011;32978;53.586;10.052;2023-04-03T20:13:53;6.20;;;5.10;;
47239;SDS011;32978;53.586;10.052;2023-04-03T20:18:50;7.97;;;5.35;;
47239;SDS011;32978;53.586;10.052;2023-04-03T20:23:50;11.77;;;5.72;;
47239;SDS011;32978;53.586;10.052;2023-04-03T20:28:46;9.15;;;5.25;;
47239;SDS011;32978;53.586;10.052;2023-04-03T20:33:43;4.80;;;4.30;;
47239;SDS011;32978;53.586;10.052;2023-04-03T20:38:41;6.82;;;4.63;;
47239;SDS011;32978;53.586;10.052;2023-04-03T20:43:37;8.32;;;5.25;;
47239;SDS011;32978;53.586;10.052;2023-04-03T20:48:35;8.30;;;4.60;;
47239;SDS011;32978;53.586;10.052;2023-04-03T20:53:31;5.90;;;4.78;;
47239;SDS011;32978;53.586;10.052;2023-04-03T20:58:29;8.27;;;5.25;;
47239;SDS011;32978;53.586;10.052;2023-04-03T21:03:30;10.73;;;4.90;;
47239;SDS011;32978;53.586;10.052;2023-04-03T21:19:52;6.90;;;5.05;;
47239;SDS011;32978;53.586;10.052;2023-04-03T21:24:52;9.82;;;4.57;;
47239;SDS011;32978;53.586;10.052;2023-04-03T21:29:55;9.13;;;4.85;;
47239;SDS011;32978;53.586;10.052;2023-04-03T21:35:05;12.68;;;5.35;;
47239;SDS011;32978;53.586;10.052;2023-04-03T21:40:08;8.68;;;4.43;;
47239;SDS011;32978;53.586;10.052;2023-04-03T21:45:10;8.23;;;4.90;;
47239;SDS011;32978;53.586;10.052;2023-04-03T21:50:13;11.93;;;5.20;;
47239;SDS011;32978;53.586;10.052;2023-04-03T21:55:13;10.87;;;5.70;;
47239;SDS011;32978;53.586;10.052;2023-04-03T22:00:16;6.88;;;4.57;;
47239;SDS011;32978;53.586;10.052;2023-04-03T22:05:19;9.65;;;4.10;;
47239;SDS011;32978;53.586;10.052;2023-04-03T22:10:16;13.10;;;4.45;;
47239;SDS011;32978;53.586;10.052;2023-04-03T22:15:18;5.95;;;4.60;;
47239;SDS011;32978;53.586;10.052;2023-04-03T22:20:15;7.80;;;4.07;;
47239;SDS011;32978;53.586;10.052;2023-04-03T22:25:16;7.95;;;4.65;;
47239;SDS011;32978;53.586;10.052;2023-04-03T22:30:15;6.20;;;4.05;;
47239;SDS011;32978;53.586;10.052;2023-04-03T22:35:22;6.65;;;3.95;;
47239;SDS011;32978;53.586;10.052;2023-04-03T22:40:25;6.63;;;4.50;;
47239;SDS011;32978;53.586;10.052;2023-04-03T22:45:24;8.00;;;4.10;;
47239;SDS011;32978;53.586;10.052;2023-04-03T22:50:20;7.22;;;4.00;;
47239;SDS011;32978;53.586;10.052;2023-04-03T22:55:34;6.30;;;3.92;;
47239;SDS011;32978;53.586;10.052;2023-04-03T23:00:36;6.75;;;4.22;;
47239;SDS011;32978;53.586;10.052;2023-04-03T23:05:41;10.68;;;4.43;;
47239;SDS011;32978;53.586;10.052;2023-04-03T23:10:39;9.27;;;4.20;;
47239;SDS011;32978;53.586;10.052;2023-04-03T23:15:39;5.47;;;4.00;;
47239;SDS011;32978;53.586;10.052;2023-04-03T23:20:48;5.93;;;4.00;;
47239;SDS011;32978;53.586;10.052;2023-04-03T23:25:53;6.35;;;4.47;;
47239;SDS011;32978;53.586;10.052;2023-04-03T23:31:05;9.25;;;4.13;;
47239;SDS011;32978;53.586;10.052;2023-04-03T23:36:08;12.88;;;3.83;;
47239;SDS011;32978;53.586;10.052;2023-04-03T23:41:17;7.60;;;3.67;;
47239;SDS011;32978;53.586;10.052;2023-04-03T23:46:20;6.82;;;3.63;;
47239;SDS011;32978;53.586;10.052;2023-04-03T23:51:20;10.02;;;3.83;;
47239;SDS011;32978;53.586;10.052;2023-04-03T23:56:25;6.60;;;3.65;;
